Layfield, Pennsylvania
Current Conditions -  °F | °C
As of 10:54 AM on Friday 21 Nov 2014 (Local Time) from KPTW Reporting Station
Clear Clear  
Wind Chill: 20°   Ceiling: Unl
Heat Index: 31°   Visibility: 10mi
Dew Point:   Wind: 15mph
Humidity: 38%   Direction: 310°NW
Pressure: 30.36"   Gusts: 31mph
Location:  40.3096°N, 75.5833°W
Report Text: KPTW 211554Z AUTO 31013G27KT 10SM CLR M01/M13 A3036 RMK AO2 PK WND 31027/1552 SLP283 T10061133
Loading
Personal Weather Stations






























Interactive Weather Map New forecast layout! Learn more

10-Day Weather Forecast

Advertisements
Track Severe Weather on mobile